createdAt,value
2023-08-07T00:00:23.863Z,81.80
2023-08-07T00:01:23.984Z,81.70
2023-08-07T00:02:24.027Z,81.70
2023-08-07T00:03:24.193Z,81.56
2023-08-07T00:04:24.211Z,81.45
2023-08-07T00:05:24.255Z,81.45
2023-08-07T00:06:24.388Z,81.35
2023-08-07T00:07:24.462Z,81.35
2023-08-07T00:08:24.613Z,81.21
2023-08-07T00:09:24.660Z,81.11
2023-08-07T00:10:24.740Z,81.01
2023-08-07T00:11:24.809Z,80.91
2023-08-07T00:12:24.866Z,80.91
2023-08-07T00:13:24.978Z,80.80
2023-08-07T00:14:25.052Z,80.70
2023-08-07T00:15:25.129Z,80.29
2023-08-07T00:16:25.267Z,80.19
2023-08-07T00:17:25.371Z,80.09
2023-08-07T00:18:25.421Z,80.09
2023-08-07T00:19:25.500Z,80.09
2023-08-07T00:20:25.572Z,80.09
2023-08-07T00:21:25.758Z,79.95
2023-08-07T00:22:25.747Z,79.95
2023-08-07T00:23:25.832Z,79.85
2023-08-07T00:24:25.866Z,79.64
2023-08-07T00:25:25.981Z,79.64
2023-08-07T00:26:26.045Z,79.64
2023-08-07T00:27:26.149Z,79.64
2023-08-07T00:28:26.252Z,79.34
2023-08-07T00:29:26.324Z,78.93
2023-08-07T00:30:26.390Z,78.93
2023-08-07T00:31:26.563Z,78.93
2023-08-07T00:32:26.638Z,78.53
2023-08-07T00:33:26.673Z,78.53
2023-08-07T00:34:26.706Z,78.42
2023-08-07T00:35:26.818Z,78.56
2023-08-07T00:36:26.959Z,78.77
2023-08-07T00:37:27.013Z,78.97
2023-08-07T00:38:27.114Z,79.07
2023-08-07T00:39:27.188Z,79.07
2023-08-07T00:40:27.261Z,79.07
2023-08-07T00:41:27.367Z,79.07
2023-08-07T00:42:27.402Z,79.07
2023-08-07T00:43:27.520Z,79.07
2023-08-07T00:44:27.557Z,79.07
2023-08-07T00:45:27.631Z,79.17
2023-08-07T00:46:27.804Z,79.27
2023-08-07T00:47:27.846Z,79.17
2023-08-07T00:48:27.968Z,79.07
2023-08-07T00:49:28.033Z,79.17
2023-08-07T00:50:34.246Z,79.17
2023-08-07T00:51:28.160Z,79.24
2023-08-07T00:52:28.248Z,79.07
2023-08-07T00:53:28.365Z,78.97
2023-08-07T00:54:28.412Z,78.93
2023-08-07T00:55:28.504Z,79.03
2023-08-07T00:56:28.600Z,79.03
2023-08-07T00:57:28.676Z,79.14
2023-08-07T00:58:28.790Z,79.03
2023-08-07T00:59:29.061Z,78.93
2023-08-07T01:22:06.289Z,81.32
2023-08-07T01:23:07.330Z,81.32
2023-08-07T01:24:07.366Z,81.43
2023-08-07T01:25:07.439Z,81.39
2023-08-07T01:26:07.534Z,81.39
2023-08-07T01:27:07.658Z,81.29
2023-08-07T01:28:07.754Z,81.18
2023-08-07T01:29:07.788Z,81.04
2023-08-07T01:30:07.864Z,81.04
2023-08-07T01:31:07.966Z,81.04
2023-08-07T01:32:07.998Z,81.04
2023-08-07T01:33:08.112Z,81.04
2023-08-07T01:34:08.180Z,81.04
2023-08-07T01:35:08.232Z,80.94
2023-08-07T01:36:08.346Z,80.91
2023-08-07T01:37:08.480Z,80.70
2023-08-07T01:38:08.491Z,80.50
2023-08-07T01:39:08.604Z,80.19
2023-08-07T01:40:08.643Z,80.09
2023-08-07T01:41:08.727Z,80.19
2023-08-07T01:42:08.801Z,80.09
2023-08-07T01:43:08.892Z,80.09
2023-08-07T01:44:08.984Z,80.09
2023-08-07T01:45:09.059Z,80.19
2023-08-07T01:46:09.183Z,80.19
2023-08-07T01:47:09.228Z,79.79
2023-08-07T01:48:09.353Z,79.58
2023-08-07T01:49:09.433Z,79.58
2023-08-07T01:50:09.435Z,79.38
2023-08-07T01:51:09.616Z,79.38
2023-08-07T01:52:09.607Z,79.48
2023-08-07T01:53:09.810Z,79.48
2023-08-07T01:54:09.779Z,79.48
2023-08-07T01:55:09.865Z,79.48
2023-08-07T01:56:09.938Z,79.44
2023-08-07T01:57:10.070Z,79.54
2023-08-07T01:58:10.123Z,79.54
2023-08-07T02:49:17.167Z,82.69
2023-08-07T02:50:17.789Z,82.69
2023-08-07T02:51:17.922Z,82.69
2023-08-07T02:52:18.139Z,82.69
2023-08-07T02:53:18.137Z,82.69
2023-08-07T02:54:18.176Z,82.55
2023-08-07T02:55:18.267Z,82.45
2023-08-07T02:56:18.365Z,82.35
2023-08-07T03:04:26.405Z,82.35
2023-08-07T03:10:42.773Z,82.45
2023-08-07T03:11:43.776Z,82.45
2023-08-07T03:12:43.935Z,82.55
2023-08-07T03:13:43.933Z,82.55
2023-08-07T03:21:37.904Z,82.04
2023-08-07T03:22:38.906Z,82.04
2023-08-07T03:23:39.099Z,82.04
2023-08-07T03:24:39.079Z,82.14
2023-08-07T03:25:39.104Z,82.14
2023-08-07T03:26:39.169Z,82.00
2023-08-07T03:27:39.275Z,81.80
2023-08-07T03:28:39.359Z,81.70
2023-08-07T03:32:36.072Z,81.49
2023-08-07T03:33:36.848Z,81.49
2023-08-07T03:34:36.937Z,81.49
2023-08-07T03:35:36.925Z,81.29
2023-08-07T03:36:37.071Z,80.98
2023-08-07T03:37:37.112Z,80.98
2023-08-07T03:38:37.276Z,80.98
2023-08-07T03:39:37.336Z,80.88
2023-08-07T03:47:29.087Z,80.68
2023-08-07T03:48:29.894Z,80.78
2023-08-07T03:49:30.025Z,80.98
2023-08-07T03:50:30.034Z,80.98
2023-08-07T03:51:30.080Z,80.98
2023-08-07T03:52:30.130Z,80.88
2023-08-07T03:53:30.241Z,80.78
2023-08-07T03:54:30.488Z,80.64
2023-08-07T03:55:30.450Z,80.64
2023-08-07T03:56:30.482Z,80.64
2023-08-07T03:57:30.533Z,80.54
2023-08-07T03:58:30.625Z,80.43
2023-08-07T03:59:30.779Z,80.13
2023-08-07T04:00:30.755Z,79.93
2023-08-07T04:01:31.568Z,80.02
2023-08-07T04:02:31.093Z,80.02
2023-08-07T04:03:31.365Z,80.13
2023-08-07T04:04:31.143Z,80.13
2023-08-07T04:05:31.197Z,80.09
2023-08-07T04:06:31.295Z,79.99
2023-08-07T04:07:31.404Z,79.89
2023-08-07T04:08:31.442Z,79.89
2023-08-07T04:09:31.609Z,79.68
2023-08-07T04:10:31.745Z,79.48
2023-08-07T04:11:31.749Z,79.48
2023-08-07T04:12:34.578Z,79.48
2023-08-07T04:13:32.195Z,79.38
2023-08-07T04:14:39.913Z,79.27
2023-08-07T04:15:32.068Z,79.07
2023-08-07T04:16:33.025Z,79.07
2023-08-07T04:20:47.424Z,78.91
2023-08-07T04:21:48.451Z,79.00
2023-08-07T04:22:48.442Z,79.11
2023-08-07T04:23:48.440Z,79.21
2023-08-07T04:29:18.477Z,79.11
2023-08-07T04:30:19.265Z,79.21
2023-08-07T04:31:20.586Z,79.32
2023-08-07T04:36:33.422Z,79.55
2023-08-07T04:37:34.296Z,79.66
2023-08-07T04:45:16.923Z,80.20
2023-08-07T04:46:17.793Z,80.20
2023-08-07T04:47:17.841Z,80.30
2023-08-07T04:51:23.648Z,80.30
2023-08-07T04:52:26.927Z,80.20
2023-08-07T04:53:24.583Z,80.30
2023-08-07T04:54:24.601Z,80.30
2023-08-07T04:55:24.644Z,80.16
2023-08-07T04:56:24.721Z,80.16
2023-08-07T04:57:24.774Z,80.16
2023-08-07T04:58:24.868Z,79.96
2023-08-07T04:59:24.959Z,79.75
2023-08-07T05:00:25.028Z,79.66
2023-08-07T05:01:25.189Z,79.66
2023-08-07T05:02:25.336Z,79.55
2023-08-07T05:03:25.462Z,79.52
2023-08-07T05:04:25.379Z,79.52
2023-08-07T05:05:25.487Z,79.41
2023-08-07T05:06:25.560Z,79.32
2023-08-07T05:07:25.689Z,79.32
2023-08-07T08:04:30.717Z,82.89
2023-08-07T08:05:31.678Z,82.89
2023-08-07T08:06:31.756Z,82.96
2023-08-07T08:07:31.798Z,83.06
2023-08-07T08:08:31.905Z,83.06
2023-08-07T08:09:31.951Z,83.02
2023-08-07T08:10:32.075Z,82.82
2023-08-07T08:11:32.121Z,82.61
2023-08-07T08:12:32.217Z,82.21
2023-08-07T08:13:32.417Z,82.00
2023-08-07T08:14:40.249Z,81.90
2023-08-07T08:15:32.491Z,81.76
2023-08-07T08:16:32.700Z,81.76
2023-08-07T08:17:32.676Z,81.76
2023-08-07T08:18:32.704Z,81.76
2023-08-07T08:19:45.428Z,81.76
2023-08-07T08:20:32.944Z,81.86
2023-08-07T08:21:32.926Z,81.93
2023-08-07T08:22:33.050Z,81.93
2023-08-07T08:23:33.126Z,81.93
2023-08-07T08:24:33.203Z,81.93
2023-08-07T08:25:33.316Z,81.93
2023-08-07T08:26:33.374Z,81.93
2023-08-07T08:27:33.533Z,81.93
2023-08-07T08:28:33.547Z,81.88
2023-08-07T08:29:33.608Z,81.88
2023-08-07T08:30:33.715Z,81.79
2023-08-07T08:31:33.822Z,81.68
2023-08-07T08:32:33.921Z,81.38
2023-08-07T08:33:33.949Z,81.38
2023-08-07T08:34:34.003Z,81.27
2023-08-07T08:35:34.125Z,81.17
2023-08-07T08:36:34.208Z,80.87
2023-08-07T08:37:34.251Z,80.66
2023-08-07T08:38:34.377Z,80.77
2023-08-07T08:39:34.432Z,80.87
2023-08-07T08:40:34.543Z,80.97
2023-08-07T08:41:34.595Z,80.97
2023-08-07T08:42:34.679Z,81.07
2023-08-07T08:43:34.769Z,81.07
2023-08-07T08:44:34.862Z,81.07
2023-08-07T08:45:35.000Z,81.07
2023-08-07T08:46:35.108Z,81.07
2023-08-07T08:47:35.146Z,81.17
2023-08-07T08:48:35.205Z,81.17
2023-08-07T08:49:35.298Z,81.17
2023-08-07T08:50:35.376Z,81.17
2023-08-07T08:51:35.438Z,81.04
2023-08-07T08:52:35.500Z,80.97
2023-08-07T08:53:35.645Z,80.93
2023-08-07T08:54:35.663Z,80.83
2023-08-07T08:55:35.799Z,80.83
2023-08-07T08:56:35.860Z,80.73
2023-08-07T08:57:35.938Z,80.73
2023-08-07T08:58:36.122Z,80.63
2023-08-07T08:59:36.119Z,80.52
2023-08-07T09:00:36.232Z,80.42
2023-08-07T09:01:36.367Z,80.22
2023-08-07T09:02:36.409Z,80.22
2023-08-07T09:03:36.593Z,80.22
2023-08-07T09:04:36.561Z,79.61
2023-08-07T09:05:36.674Z,78.28
2023-08-07T09:06:36.735Z,78.08
2023-08-07T09:07:36.833Z,78.08
2023-08-07T09:08:36.906Z,77.91
2023-08-07T09:09:37.048Z,76.18
2023-08-07T09:10:37.077Z,76.39
2023-08-07T09:11:37.163Z,76.79
2023-08-07T09:12:37.240Z,77.10
2023-08-07T09:13:37.319Z,76.90
2023-08-07T09:14:37.431Z,77.00
2023-08-07T09:15:37.561Z,77.20
2023-08-07T09:16:37.665Z,77.30
2023-08-07T09:17:37.742Z,77.20
2023-08-07T09:18:37.791Z,77.20
2023-08-07T09:19:37.913Z,77.40
2023-08-07T09:20:37.984Z,77.61
2023-08-07T09:21:38.075Z,77.71
2023-08-07T09:22:38.152Z,77.81
2023-08-07T09:23:38.223Z,77.91
2023-08-07T09:24:38.276Z,78.12
2023-08-07T09:25:38.409Z,78.22
2023-08-07T09:26:38.487Z,78.22
2023-08-07T09:27:38.574Z,78.02
2023-08-07T09:28:38.612Z,77.91
2023-08-07T09:29:38.700Z,78.02
2023-08-07T09:30:38.888Z,78.12
2023-08-07T09:31:38.875Z,77.81
2023-08-07T09:32:39.028Z,77.71
2023-08-07T09:33:39.027Z,77.81
2023-08-07T09:34:39.126Z,77.81
2023-08-07T09:35:39.247Z,78.02
2023-08-07T09:36:39.310Z,78.12
2023-08-07T09:37:41.459Z,78.08
2023-08-07T09:38:39.521Z,78.19
2023-08-07T09:47:04.530Z,79.44
2023-08-07T09:48:05.612Z,79.54
2023-08-07T09:49:05.526Z,79.64
2023-08-07T09:50:05.683Z,79.75
2023-08-07T09:51:05.746Z,79.75
2023-08-07T09:52:05.797Z,79.95
2023-08-07T09:53:05.881Z,80.11
2023-08-07T09:54:05.962Z,80.32
2023-08-07T09:55:06.026Z,80.11
2023-08-07T09:56:06.136Z,80.02
2023-08-07T09:57:06.192Z,80.02
2023-08-07T09:58:06.249Z,79.30
2023-08-07T09:59:06.358Z,78.96
2023-08-07T10:00:06.422Z,78.86
2023-08-07T10:01:06.538Z,78.76
2023-08-07T10:02:06.623Z,78.76
2023-08-07T10:03:06.747Z,78.86
2023-08-07T10:04:06.838Z,78.96
2023-08-07T10:05:06.826Z,78.92
2023-08-07T10:06:06.934Z,78.92
2023-08-07T10:07:06.967Z,78.92
2023-08-07T10:08:07.040Z,78.92
2023-08-07T10:56:45.223Z,75.16
2023-08-07T10:57:46.353Z,75.26
2023-08-07T10:58:46.300Z,75.26
2023-08-07T10:59:46.392Z,74.85
2023-08-07T11:00:46.479Z,74.82
2023-08-07T11:19:07.235Z,79.03
2023-08-07T11:20:08.198Z,78.93
2023-08-07T11:21:08.227Z,79.34
2023-08-07T11:22:08.300Z,78.89
2023-08-07T11:23:08.380Z,78.80
2023-08-07T11:24:08.454Z,79.10
2023-08-07T11:25:08.515Z,79.50
2023-08-07T11:26:08.646Z,79.88
2023-08-07T11:27:08.784Z,80.18
2023-08-07T11:28:08.834Z,80.38
2023-08-07T11:29:08.903Z,80.38
2023-08-07T11:30:08.995Z,80.24
2023-08-07T11:31:09.213Z,80.15
2023-08-07T11:32:10.709Z,80.24
2023-08-07T11:33:09.192Z,80.04
2023-08-07T11:34:09.328Z,79.80
2023-08-07T11:35:09.447Z,79.50
2023-08-07T11:36:09.518Z,78.99
2023-08-07T11:37:09.503Z,78.58
2023-08-07T11:38:09.585Z,78.68
2023-08-07T11:39:09.649Z,78.58
2023-08-07T11:40:09.746Z,78.48
2023-08-07T11:41:09.835Z,78.17
2023-08-07T11:42:09.921Z,77.67
2023-08-07T11:43:09.979Z,77.77
2023-08-07T11:44:10.047Z,77.67
2023-08-07T11:45:10.113Z,77.47
2023-08-07T11:46:10.268Z,77.47
2023-08-07T11:47:10.275Z,77.36
2023-08-07T11:48:10.352Z,77.56
2023-08-07T11:49:10.484Z,77.67
2023-08-07T11:50:10.539Z,77.87
2023-08-07T11:51:10.668Z,78.17
2023-08-07T11:52:10.755Z,78.08
2023-08-07T11:53:10.820Z,78.08
2023-08-07T11:54:10.875Z,77.97
2023-08-07T11:55:10.927Z,78.04
2023-08-07T11:56:11.040Z,78.24
2023-08-07T11:57:11.126Z,78.34
2023-08-07T11:58:11.258Z,78.14
2023-08-07T11:59:11.324Z,78.14
2023-08-07T12:00:11.365Z,78.24
2023-08-07T12:01:11.468Z,78.44
2023-08-07T12:02:11.564Z,78.44
2023-08-07T12:03:11.742Z,78.34
2023-08-07T12:14:15.050Z,74.96
2023-08-07T12:15:16.117Z,74.55
2023-08-07T12:16:16.139Z,74.15
2023-08-07T12:17:16.198Z,74.15
2023-08-07T12:18:16.248Z,74.24
2023-08-07T12:19:16.305Z,72.62
2023-08-07T12:20:16.405Z,72.92
2023-08-07T12:21:16.458Z,73.02
2023-08-07T12:22:16.608Z,72.92
2023-08-07T12:23:16.689Z,73.23
2023-08-07T13:14:55.312Z,74.82
2023-08-07T13:15:56.303Z,75.02
2023-08-07T13:16:56.748Z,75.23
2023-08-07T13:17:56.500Z,75.33
2023-08-07T13:18:56.468Z,75.09
2023-08-07T13:19:56.536Z,75.09
2023-08-07T13:20:56.605Z,74.99
2023-08-07T13:21:56.928Z,74.89
2023-08-07T13:22:56.760Z,74.85
2023-08-07T13:23:56.873Z,74.76
2023-08-07T13:24:56.896Z,74.85
2023-08-07T13:25:56.990Z,74.85
2023-08-07T13:26:57.401Z,74.92
2023-08-07T13:27:57.181Z,75.02
2023-08-07T13:28:57.273Z,74.92
2023-08-07T13:29:57.393Z,74.82
2023-08-07T13:30:57.556Z,74.82
2023-08-07T13:31:57.888Z,74.82
2023-08-07T13:32:57.616Z,74.82
2023-08-07T13:33:57.678Z,74.72
2023-08-07T13:34:57.757Z,74.72
2023-08-07T13:35:57.858Z,74.62
2023-08-07T13:36:57.892Z,74.58
2023-08-07T13:37:58.003Z,74.48
2023-08-07T13:38:58.058Z,74.38
2023-08-07T13:39:58.170Z,74.38
2023-08-07T13:40:58.247Z,74.48
2023-08-07T13:41:58.588Z,74.58
2023-08-07T13:42:58.405Z,74.58
2023-08-07T13:43:58.487Z,74.18
2023-08-07T16:50:19.620Z,77.91
2023-08-07T16:51:20.845Z,77.70
